createdAt,value
2023-05-01T00:02:42.216Z,1.82
2023-05-01T00:05:45.269Z,1.83
2023-05-01T00:08:47.888Z,1.84
2023-05-01T00:11:50.538Z,1.92
2023-05-01T00:14:54.866Z,1.98
2023-05-01T00:17:57.289Z,2.02
2023-05-01T00:20:59.786Z,1.98
2023-05-01T00:24:02.100Z,1.85
2023-05-01T00:27:04.556Z,1.84
2023-05-01T00:30:07.755Z,1.76
2023-05-01T00:33:10.397Z,1.77
2023-05-01T00:36:13.012Z,1.79
2023-05-01T00:39:15.365Z,1.70
2023-05-01T00:42:17.756Z,1.77
2023-05-01T00:45:20.336Z,1.72
2023-05-01T00:48:22.648Z,1.64
2023-05-01T00:51:25.511Z,1.53
2023-05-01T00:54:28.623Z,1.52
2023-05-01T00:57:30.991Z,1.32
2023-05-01T01:00:33.408Z,1.34
2023-05-01T01:03:35.863Z,1.43
2023-05-01T01:07:01.391Z,1.46
2023-05-01T01:10:41.557Z,1.39
2023-05-01T01:14:05.430Z,1.37
2023-05-01T01:17:31.896Z,1.40
2023-05-01T01:20:56.477Z,1.38
2023-05-01T01:24:22.250Z,1.33
2023-05-01T01:27:47.719Z,1.18
2023-05-01T01:31:12.792Z,1.15
2023-05-01T01:34:14.999Z,1.01
2023-05-01T01:37:22.951Z,1.05
2023-05-01T01:40:29.931Z,0.98
2023-05-01T01:43:36.885Z,0.97
2023-05-01T01:46:41.406Z,0.97
2023-05-01T01:49:46.745Z,1.00
2023-05-01T01:52:51.001Z,0.92
2023-05-01T01:55:55.714Z,0.95
2023-05-01T01:58:58.754Z,0.96
2023-05-01T02:02:02.948Z,0.95
2023-05-01T02:05:08.853Z,0.91
2023-05-01T02:08:13.599Z,1.00
2023-05-01T02:11:16.665Z,0.86
2023-05-01T02:14:19.744Z,0.83
2023-05-01T02:17:22.214Z,0.79
2023-05-01T02:20:25.105Z,0.69
2023-05-01T02:23:31.991Z,0.72
2023-05-01T02:26:42.797Z,0.70
2023-05-01T02:29:45.624Z,0.61
2023-05-01T02:32:48.096Z,0.62
2023-05-01T02:35:50.860Z,0.55
2023-05-01T02:38:54.877Z,0.53
2023-05-01T02:41:58.610Z,0.52
2023-05-01T02:45:06.715Z,0.48
2023-05-01T02:48:11.113Z,0.42
2023-05-01T02:51:13.673Z,0.36
2023-05-01T02:54:16.525Z,0.40
2023-05-01T02:57:20.505Z,0.42
2023-05-01T03:00:23.513Z,0.52
2023-05-01T03:03:26.398Z,0.56
2023-05-01T03:06:29.332Z,0.63
2023-05-01T03:09:31.967Z,0.59
2023-05-01T03:12:34.514Z,0.58
2023-05-01T03:15:38.093Z,0.58
2023-05-01T03:18:40.492Z,0.64
2023-05-01T03:21:42.863Z,0.57
2023-05-01T03:24:45.627Z,0.66
2023-05-01T03:27:49.005Z,0.73
2023-05-01T03:30:52.553Z,0.82
2023-05-01T03:33:55.991Z,0.78
2023-05-01T03:36:58.408Z,0.88
2023-05-01T03:40:02.748Z,1.59
2023-05-01T03:43:31.905Z,2.31
2023-05-01T03:46:36.311Z,2.93
2023-05-01T03:49:41.646Z,3.64
2023-05-01T03:52:44.088Z,4.05
2023-05-01T03:55:46.537Z,4.94
2023-05-01T03:58:49.648Z,5.48
2023-05-01T04:01:52.204Z,6.09
2023-05-01T04:04:54.686Z,6.54
2023-05-01T04:07:58.179Z,6.66
2023-05-01T04:11:01.448Z,6.26
2023-05-01T04:14:04.237Z,5.71
2023-05-01T04:17:11.710Z,6.36
2023-05-01T04:20:14.189Z,7.65
2023-05-01T04:23:17.076Z,8.38
2023-05-01T04:26:19.612Z,8.78
2023-05-01T04:29:21.975Z,9.45
2023-05-01T04:32:24.594Z,9.82
2023-05-01T04:35:27.127Z,9.90
2023-05-01T04:38:31.198Z,9.78
2023-05-01T04:41:34.951Z,9.52
2023-05-01T04:44:39.235Z,9.84
2023-05-01T04:47:41.690Z,10.07
2023-05-01T04:50:44.438Z,10.31
2023-05-01T04:53:47.160Z,10.56
2023-05-01T04:56:58.472Z,10.38
2023-05-01T05:00:01.812Z,10.23
2023-05-01T05:03:07.077Z,10.67
2023-05-01T05:06:10.370Z,10.81
2023-05-01T05:09:13.545Z,10.93
2023-05-01T05:12:16.166Z,10.93
2023-05-01T05:15:18.694Z,10.77
2023-05-01T05:18:21.218Z,10.08
2023-05-01T05:21:23.718Z,10.26
2023-05-01T05:24:29.657Z,10.42
2023-05-01T05:27:36.599Z,10.73
2023-05-01T05:30:39.517Z,10.80
2023-05-01T05:33:44.821Z,10.66
2023-05-01T05:36:48.481Z,10.86
2023-05-01T05:39:53.935Z,10.79
2023-05-01T05:42:57.270Z,10.97
2023-05-01T05:46:02.079Z,10.85
2023-05-01T05:49:07.182Z,10.83
2023-05-01T05:52:10.080Z,10.88
2023-05-01T05:55:13.976Z,10.93
2023-05-01T05:58:24.704Z,11.17
2023-05-01T06:01:27.084Z,11.01
2023-05-01T06:04:29.524Z,10.83
2023-05-01T06:07:32.347Z,10.85
2023-05-01T06:10:34.806Z,10.83
2023-05-01T06:13:37.134Z,10.78
2023-05-01T06:16:39.733Z,11.01
2023-05-01T06:19:42.117Z,10.90
2023-05-01T06:22:46.981Z,11.04
2023-05-01T06:26:04.878Z,10.96
2023-05-01T06:29:07.429Z,10.78
2023-05-01T06:32:10.040Z,10.71
2023-05-01T06:35:12.402Z,10.73
2023-05-01T06:38:15.807Z,10.91
2023-05-01T06:41:19.152Z,11.02
2023-05-01T06:44:21.575Z,11.01
2023-05-01T06:47:24.329Z,11.06
2023-05-01T06:50:26.810Z,11.15
2023-05-01T06:53:29.217Z,10.72
2023-05-01T06:56:32.574Z,10.77
2023-05-01T06:59:34.940Z,10.58
2023-05-01T07:02:38.390Z,10.29
2023-05-01T07:05:41.057Z,10.12
2023-05-01T07:08:44.576Z,9.88
2023-05-01T07:11:47.648Z,9.76
2023-05-01T07:14:50.228Z,9.86
2023-05-01T07:17:52.862Z,9.88
2023-05-01T07:20:55.197Z,9.81
2023-05-01T07:23:57.732Z,9.77
2023-05-01T07:27:00.234Z,9.85
2023-05-01T07:30:05.419Z,9.72
2023-05-01T07:33:07.904Z,9.76
2023-05-01T07:36:10.569Z,9.97
2023-05-01T07:39:14.833Z,9.76
2023-05-01T07:42:17.200Z,9.80
2023-05-01T07:45:19.630Z,9.93
2023-05-01T07:48:21.998Z,10.11
2023-05-01T07:51:24.462Z,9.94
2023-05-01T07:54:26.946Z,10.08
2023-05-01T07:57:30.227Z,10.05
2023-05-01T08:00:32.550Z,10.11
2023-05-01T08:03:35.370Z,10.04
2023-05-01T08:06:37.922Z,10.42
2023-05-01T08:09:40.282Z,10.26
2023-05-01T08:12:42.674Z,10.47
2023-05-01T08:15:47.608Z,10.58
2023-05-01T08:18:49.972Z,10.59
2023-05-01T08:21:52.345Z,10.68
2023-05-01T08:24:54.712Z,10.62
2023-05-01T08:27:57.166Z,10.82
2023-05-01T08:30:59.549Z,10.49
2023-05-01T08:34:01.966Z,10.58
2023-05-01T08:37:04.468Z,11.15
2023-05-01T08:40:10.366Z,11.23
2023-05-01T08:43:13.306Z,11.17
2023-05-01T08:46:26.964Z,11.04
2023-05-01T08:49:33.676Z,11.44
2023-05-01T08:52:37.074Z,11.39
2023-05-01T08:55:39.602Z,11.77
2023-05-01T08:58:42.592Z,11.25
2023-05-01T09:01:47.343Z,11.70
2023-05-01T09:04:50.203Z,11.49
2023-05-01T09:07:53.545Z,11.99
2023-05-01T09:10:58.205Z,11.78
2023-05-01T09:14:02.038Z,12.06
2023-05-01T09:17:04.498Z,12.29
2023-05-01T09:20:07.840Z,12.07
2023-05-01T09:23:10.834Z,11.75
2023-05-01T09:26:13.235Z,11.63
2023-05-01T09:29:39.291Z,11.85
2023-05-01T09:32:42.650Z,12.12
2023-05-01T09:35:55.803Z,12.38
2023-05-01T09:39:00.292Z,12.18
2023-05-01T09:42:03.304Z,12.38
2023-05-01T09:45:16.430Z,12.39
2023-05-01T09:48:19.457Z,12.61
2023-05-01T09:51:29.424Z,12.48
2023-05-01T09:54:31.785Z,12.62
2023-05-01T09:57:38.379Z,12.96
2023-05-01T10:00:50.063Z,12.88
2023-05-01T10:03:56.839Z,13.09
2023-05-01T10:07:02.104Z,13.23
2023-05-01T10:10:18.135Z,13.19
2023-05-01T10:13:20.708Z,13.26
2023-05-01T10:16:30.927Z,13.68
2023-05-01T10:19:34.495Z,13.43
2023-05-01T10:22:39.236Z,13.42
2023-05-01T10:25:43.712Z,13.31
2023-05-01T10:28:49.686Z,13.43
2023-05-01T10:31:52.914Z,13.34
2023-05-01T10:35:01.582Z,13.72
2023-05-01T10:38:11.211Z,13.76
2023-05-01T10:41:15.419Z,13.68
2023-05-01T10:44:25.814Z,13.74
2023-05-01T10:47:28.932Z,14.11
2023-05-01T10:50:31.466Z,14.21
2023-05-01T10:53:33.864Z,14.42
2023-05-01T10:56:36.284Z,14.42
2023-05-01T11:00:05.575Z,14.25
2023-05-01T11:03:23.367Z,14.82
2023-05-01T11:06:26.445Z,14.68
2023-05-01T11:09:43.993Z,14.51
2023-05-01T11:12:46.549Z,14.42
2023-05-01T11:15:49.094Z,14.50
2023-05-01T11:18:51.612Z,14.44
2023-05-01T11:21:54.396Z,14.88
2023-05-01T11:24:57.242Z,14.95
2023-05-01T11:28:04.279Z,15.22
2023-05-01T11:31:06.798Z,15.38
2023-05-01T11:34:09.728Z,15.66
2023-05-01T11:37:12.215Z,15.58
2023-05-01T11:40:24.901Z,15.52
2023-05-01T11:43:27.759Z,15.62
2023-05-01T11:46:32.490Z,15.70
2023-05-01T11:49:35.145Z,16.01
2023-05-01T11:52:55.444Z,16.10
2023-05-01T11:55:59.620Z,15.98
2023-05-01T11:59:16.746Z,15.99
2023-05-01T12:02:20.920Z,16.23
2023-05-01T12:05:24.744Z,16.31
2023-05-01T12:08:27.361Z,16.45
2023-05-01T12:11:29.850Z,16.70
2023-05-01T12:14:32.403Z,16.56
2023-05-01T12:17:34.845Z,16.30
2023-05-01T12:20:40.927Z,16.27
2023-05-01T12:23:43.449Z,16.05
2023-05-01T12:26:46.581Z,16.43
2023-05-01T12:29:50.409Z,16.30
2023-05-01T12:32:53.054Z,16.33
2023-05-01T12:35:55.729Z,16.47
2023-05-01T12:39:00.855Z,16.43
2023-05-01T12:42:03.348Z,16.56
2023-05-01T12:45:06.188Z,16.63
2023-05-01T12:48:15.177Z,16.64
2023-05-01T12:51:21.186Z,16.77
2023-05-01T12:54:29.812Z,16.90
2023-05-01T12:57:33.684Z,17.11
2023-05-01T13:01:02.572Z,16.86
2023-05-01T13:04:05.175Z,17.18
2023-05-01T13:07:20.870Z,17.27
2023-05-01T13:10:32.660Z,17.45
2023-05-01T13:13:36.169Z,17.56
2023-05-01T13:16:47.744Z,17.56
2023-05-01T13:20:01.502Z,17.62
2023-05-01T13:23:11.385Z,17.47
2023-05-01T13:26:16.384Z,17.75
2023-05-01T13:29:18.799Z,17.60
2023-05-01T13:32:21.369Z,17.72
2023-05-01T13:35:25.454Z,17.75
2023-05-01T13:38:27.984Z,17.86
2023-05-01T13:41:30.692Z,17.58
2023-05-01T13:44:33.084Z,17.23
2023-05-01T13:47:39.020Z,17.22
2023-05-01T13:50:43.030Z,17.35
2023-05-01T13:53:45.423Z,17.32
2023-05-01T13:56:47.920Z,17.52
2023-05-01T13:59:50.590Z,17.33
2023-05-01T14:02:54.333Z,17.46
2023-05-01T14:05:57.019Z,17.80
2023-05-01T14:09:04.123Z,17.76
2023-05-01T14:12:06.550Z,17.86
2023-05-01T14:15:11.923Z,17.74
2023-05-01T14:18:19.845Z,17.61
2023-05-01T14:21:28.235Z,17.76
2023-05-01T14:24:30.959Z,17.73
2023-05-01T14:27:34.594Z,17.80
2023-05-01T14:30:38.726Z,17.89
2023-05-01T14:33:45.686Z,17.81
2023-05-01T14:36:48.180Z,17.80
2023-05-01T14:39:50.701Z,17.79
2023-05-01T14:42:55.849Z,17.85
2023-05-01T14:45:58.668Z,17.92
2023-05-01T14:49:01.766Z,17.91
2023-05-01T14:52:04.363Z,17.96
2023-05-01T14:55:07.010Z,17.79
2023-05-01T14:58:09.508Z,17.77
2023-05-01T15:01:11.914Z,17.82
2023-05-01T15:04:14.480Z,17.80
2023-05-01T15:07:17.296Z,17.91
2023-05-01T15:10:20.914Z,17.79
2023-05-01T15:13:23.390Z,17.73
2023-05-01T15:16:25.919Z,17.78
2023-05-01T15:19:28.481Z,17.87
2023-05-01T15:22:31.455Z,17.82
2023-05-01T15:25:34.256Z,17.68
2023-05-01T15:28:36.773Z,17.66
2023-05-01T15:31:40.138Z,17.46
2023-05-01T15:34:43.046Z,17.20
2023-05-01T15:37:45.632Z,17.17
2023-05-01T15:40:50.186Z,17.15
2023-05-01T15:43:52.987Z,17.17
2023-05-01T15:46:55.950Z,17.09
2023-05-01T15:49:59.434Z,17.17
2023-05-01T15:53:02.478Z,17.17
2023-05-01T15:56:05.031Z,17.09
2023-05-01T15:59:09.924Z,17.30
2023-05-01T16:02:12.968Z,17.43
2023-05-01T16:05:21.600Z,17.46
2023-05-01T16:08:24.274Z,17.23
2023-05-01T16:11:26.893Z,17.04
2023-05-01T16:14:29.373Z,16.95
2023-05-01T16:17:33.972Z,16.92
2023-05-01T16:20:42.388Z,16.84
2023-05-01T16:23:45.358Z,16.80
2023-05-01T16:26:48.660Z,16.79
2023-05-01T16:29:51.020Z,16.74
2023-05-01T16:32:53.915Z,16.64
2023-05-01T16:35:57.699Z,16.53
2023-05-01T16:39:02.075Z,16.28
2023-05-01T16:42:04.884Z,16.01
2023-05-01T16:45:08.807Z,16.06
2023-05-01T16:48:11.623Z,15.87
2023-05-01T16:51:14.008Z,15.63
2023-05-01T16:54:17.724Z,15.43
2023-05-01T16:57:20.976Z,15.11
2023-05-01T17:00:24.097Z,14.99
2023-05-01T17:03:27.379Z,14.75
2023-05-01T17:06:30.092Z,14.64
2023-05-01T17:09:33.201Z,14.45
2023-05-01T17:12:35.756Z,14.30
2023-05-01T17:15:38.291Z,14.18
2023-05-01T17:18:41.375Z,14.16
2023-05-01T17:21:44.963Z,13.94
2023-05-01T17:24:48.036Z,13.91
2023-05-01T17:27:50.369Z,13.75
2023-05-01T17:30:52.869Z,13.91
2023-05-01T17:33:55.530Z,13.64
2023-05-01T17:36:58.223Z,13.62
2023-05-01T17:40:01.356Z,13.62
2023-05-01T17:43:04.429Z,13.46
2023-05-01T17:46:07.192Z,13.47
2023-05-01T17:49:09.685Z,13.32
2023-05-01T17:52:12.438Z,13.25
2023-05-01T17:55:17.822Z,13.19
2023-05-01T17:58:21.001Z,13.03
2023-05-01T18:01:23.960Z,12.97
2023-05-01T18:04:27.087Z,12.80
2023-05-01T18:07:30.889Z,12.79
2023-05-01T18:10:33.284Z,12.59
2023-05-01T18:13:39.729Z,12.54
2023-05-01T18:16:42.372Z,12.55
2023-05-01T18:19:44.923Z,12.43
2023-05-01T18:22:47.393Z,12.34
2023-05-01T18:25:50.200Z,12.27
2023-05-01T18:28:52.693Z,12.22
2023-05-01T18:31:55.573Z,12.08
2023-05-01T18:34:57.967Z,11.84
2023-05-01T18:38:00.477Z,11.71
2023-05-01T18:41:03.159Z,11.53
2023-05-01T18:44:05.637Z,11.50
2023-05-01T18:47:07.958Z,11.35
2023-05-01T18:50:11.455Z,11.27
2023-05-01T18:53:13.939Z,11.20
2023-05-01T18:56:17.022Z,11.03
2023-05-01T18:59:19.726Z,11.03
2023-05-01T19:02:22.380Z,10.60
2023-05-01T19:05:25.694Z,10.83
2023-05-01T19:08:28.246Z,10.74
2023-05-01T19:11:32.032Z,10.57
2023-05-01T19:14:34.372Z,10.57
2023-05-01T19:17:37.760Z,10.63
2023-05-01T19:20:40.476Z,10.71
2023-05-01T19:23:43.301Z,10.59
2023-05-01T19:26:45.706Z,10.45
2023-05-01T19:29:48.268Z,10.48
2023-05-01T19:32:52.063Z,10.35
2023-05-01T19:35:55.876Z,10.31
2023-05-01T19:38:58.351Z,10.29
2023-05-01T19:42:02.321Z,10.21
2023-05-01T19:45:05.338Z,10.18
2023-05-01T19:48:07.960Z,10.10
2023-05-01T19:51:10.328Z,10.17
2023-05-01T19:54:12.894Z,10.14
2023-05-01T19:57:16.536Z,10.05
2023-05-01T20:00:18.943Z,10.03
2023-05-01T20:03:21.652Z,10.07
2023-05-01T20:06:24.903Z,10.16
2023-05-01T20:09:27.543Z,10.06
2023-05-01T20:12:32.756Z,9.89
2023-05-01T20:15:35.483Z,9.93
2023-05-01T20:18:38.143Z,9.88
2023-05-01T20:21:40.624Z,9.83
2023-05-01T20:24:42.926Z,9.82
2023-05-01T20:27:46.610Z,9.57
2023-05-01T20:30:50.271Z,9.49
2023-05-01T20:33:52.739Z,9.38
2023-05-01T20:36:55.473Z,9.42
2023-05-01T20:39:58.224Z,9.44
2023-05-01T20:43:02.043Z,9.33
2023-05-01T20:46:04.694Z,9.29
2023-05-01T20:49:10.149Z,9.28
2023-05-01T20:52:12.926Z,9.28
2023-05-01T20:55:15.490Z,9.24
2023-05-01T20:58:17.815Z,9.27
2023-05-01T21:01:20.768Z,9.17
2023-05-01T21:04:24.139Z,9.29
2023-05-01T21:07:26.618Z,9.19
2023-05-01T21:10:29.367Z,9.28
2023-05-01T21:13:32.490Z,9.31
2023-05-01T21:16:36.063Z,9.32
2023-05-01T21:19:46.336Z,9.37
2023-05-01T21:22:49.073Z,9.32
2023-05-01T21:25:54.499Z,9.33
2023-05-01T21:28:58.561Z,9.34
2023-05-01T21:32:04.856Z,9.23
2023-05-01T21:35:08.916Z,9.44
2023-05-01T21:38:11.375Z,9.40
2023-05-01T21:41:15.752Z,9.38
2023-05-01T21:44:18.768Z,9.26
2023-05-01T21:47:21.352Z,9.32
2023-05-01T21:50:23.781Z,9.43
2023-05-01T21:53:29.107Z,9.27
2023-05-01T21:56:31.489Z,9.32
2023-05-01T21:59:39.251Z,9.31
2023-05-01T22:02:43.945Z,9.19
2023-05-01T22:05:46.483Z,9.20
2023-05-01T22:08:48.981Z,9.19
2023-05-01T22:11:51.492Z,9.19
2023-05-01T22:14:55.652Z,9.06
2023-05-01T22:17:58.050Z,9.02
2023-05-01T22:21:01.532Z,9.01
2023-05-01T22:24:04.205Z,9.16
2023-05-01T22:27:06.864Z,8.99
2023-05-01T22:30:09.665Z,9.03
2023-05-01T22:33:12.349Z,9.14
2023-05-01T22:36:14.865Z,9.19
2023-05-01T22:39:17.349Z,9.07
2023-05-01T22:42:20.076Z,9.12
2023-05-01T22:45:22.563Z,8.98
2023-05-01T22:48:26.585Z,9.05
2023-05-01T22:51:28.974Z,9.15
2023-05-01T22:54:31.299Z,9.08
2023-05-01T22:57:33.731Z,9.13
2023-05-01T23:00:36.718Z,9.18
2023-05-01T23:03:39.571Z,9.14
2023-05-01T23:06:42.295Z,9.18
2023-05-01T23:09:44.996Z,9.25
2023-05-01T23:12:48.308Z,9.12
2023-05-01T23:15:52.440Z,9.04
2023-05-01T23:18:56.958Z,9.00
2023-05-01T23:22:10.166Z,9.01
2023-05-01T23:25:20.669Z,9.03
2023-05-01T23:28:25.672Z,9.09
2023-05-01T23:31:43.931Z,9.10
2023-05-01T23:34:51.447Z,9.00
2023-05-01T23:37:54.222Z,8.99
2023-05-01T23:40:56.668Z,9.06
2023-05-01T23:44:08.530Z,9.06
2023-05-01T23:47:16.829Z,9.06
2023-05-01T23:50:20.595Z,9.21
2023-05-01T23:53:23.051Z,9.14
2023-05-01T23:56:25.707Z,9.16
2023-05-01T23:59:28.350Z,9.02
